Time;durP1;ratioP1;P1;durP2;ratioP2;P2;SDS_P1;SDS_P2;PMS_P1;PMS_P2;Temp;Humidity;BMP_temperature;BMP_pressure;BME280_temperature;BME280_humidity;BME280_pressure;Samples;Min_cycle;Max_cycle;Signal;HPM_P1;HPM_P2
2023/03/26 00:01:23;;;;;;;6.88;2.35;;;;;9.20;97971.00;;;;5014878;28;20477;-59
2023/03/26 00:03:54;;;;;;;8.68;2.15;;;;;9.10;97973.00;;;;5014509;28;20042;-59
2023/03/26 00:06:24;;;;;;;10.35;2.40;;;;;9.10;97972.00;;;;5013955;28;20045;-60
2023/03/26 00:08:52;;;;;;;10.20;2.33;;;;;9.10;97980.00;;;;5013133;28;20053;-60
2023/03/26 00:11:21;;;;;;;4.65;2.00;;;;;9.10;97975.00;;;;5013653;28;20042;-59
2023/03/26 00:13:48;;;;;;;6.50;1.77;;;;;9.10;97981.00;;;;5013487;28;20046;-60
2023/03/26 00:16:17;;;;;;;8.15;2.08;;;;;9.00;97965.00;;;;5013740;28;20450;-59
2023/03/26 00:18:44;;;;;;;8.55;2.10;;;;;9.00;97969.00;;;;5013000;28;20108;-60
2023/03/26 00:21:15;;;;;;;12.60;2.35;;;;;9.10;97978.00;;;;5013251;28;20042;-60
2023/03/26 00:23:43;;;;;;;13.45;2.67;;;;;9.00;97963.00;;;;5012195;28;20061;-59
2023/03/26 00:26:10;;;;;;;10.35;2.47;;;;;9.10;97971.00;;;;5013299;28;20133;-59
2023/03/26 00:28:41;;;;;;;8.32;2.15;;;;;9.10;97961.00;;;;5011582;28;20498;-60
2023/03/26 00:31:11;;;;;;;14.02;3.00;;;;;9.10;97954.00;;;;5013026;28;20050;-60
2023/03/26 00:33:40;;;;;;;7.93;2.50;;;;;9.10;97954.00;;;;5012796;28;20049;-60
2023/03/26 00:36:16;;;;;;;10.63;2.40;;;;;9.10;97951.00;;;;5013105;28;20045;-59
2023/03/26 00:38:43;;;;;;;6.82;2.30;;;;;9.10;97942.00;;;;5012450;28;20057;-59
2023/03/26 00:41:16;;;;;;;8.20;2.15;;;;;9.10;97945.00;;;;5012856;28;20073;-59
2023/03/26 00:43:47;;;;;;;11.18;3.30;;;;;9.20;97937.00;;;;5012932;28;20057;-59
2023/03/26 00:46:16;;;;;;;9.52;2.40;;;;;9.20;97933.00;;;;5014445;28;20125;-60
2023/03/26 00:48:44;;;;;;;7.80;2.33;;;;;9.10;97935.00;;;;5012316;28;20049;-59
2023/03/26 00:51:14;;;;;;;7.22;2.50;;;;;9.10;97929.00;;;;5012578;28;20088;-60
2023/03/26 00:53:43;;;;;;;7.97;2.42;;;;;9.10;97932.00;;;;5014276;28;20065;-60
2023/03/26 00:56:10;;;;;;;10.98;2.25;;;;;9.10;97931.00;;;;5014195;28;20662;-60
2023/03/26 00:58:37;;;;;;;7.80;2.70;;;;;9.10;97939.00;;;;5013353;28;20065;-60
2023/03/26 01:01:07;;;;;;;7.15;2.35;;;;;9.00;97926.00;;;;5013916;28;20549;-59
2023/03/26 01:03:36;;;;;;;8.88;2.20;;;;;9.00;97929.00;;;;4996544;28;20057;-59
2023/03/26 01:06:08;;;;;;;5.82;1.98;;;;;9.00;97929.00;;;;5014225;28;20056;-60
2023/03/26 01:08:41;;;;;;;7.25;2.42;;;;;8.90;97916.00;;;;5012451;28;20092;-60
2023/03/26 01:11:15;;;;;;;14.10;3.03;;;;;8.90;97920.00;;;;5014688;28;20065;-59
2023/03/26 01:13:51;;;;;;;10.32;3.28;;;;;8.90;97908.00;;;;5014216;28;20041;-59
2023/03/26 01:16:29;;;;;;;8.70;2.40;;;;;8.80;97903.00;;;;5015507;28;20053;-59
2023/03/26 01:18:57;;;;;;;5.25;2.17;;;;;8.90;97909.00;;;;5014557;28;20121;-59
2023/03/26 01:21:29;;;;;;;6.00;2.28;;;;;8.90;97899.00;;;;5014275;28;20041;-60
2023/03/26 01:24:06;;;;;;;8.80;2.50;;;;;8.90;97896.00;;;;5014433;28;20050;-60
2023/03/26 01:26:57;;;;;;;6.07;2.30;;;;;8.90;97898.00;;;;5014590;28;20070;-61
2023/03/26 01:29:28;;;;;;;9.45;2.35;;;;;8.90;97893.00;;;;5013818;28;20045;-60
2023/03/26 01:32:23;;;;;;;4.55;1.70;;;;;8.90;97882.00;;;;5014373;28;20038;-61
2023/03/26 01:35:02;;;;;;;;;;;;;8.90;97873.00;;;;5013527;28;20076;-60
2023/03/26 01:38:01;;;;;;;9.02;2.53;;;;;8.80;97870.00;;;;5014597;28;19928;-61
2023/03/26 01:40:37;;;;;;;9.75;2.03;;;;;8.80;97867.00;;;;5011293;28;20495;-59
2023/03/26 01:43:14;;;;;;;7.95;2.08;;;;;8.80;97870.00;;;;5012879;28;20469;-60
2023/03/26 01:45:43;;;;;;;4.45;1.75;;;;;8.80;97861.00;;;;5029110;28;20104;-59
2023/03/26 01:48:10;;;;;;;8.57;2.70;;;;;8.80;97858.00;;;;5015686;28;20045;-60
2023/03/26 01:50:37;;;;;;;11.80;2.45;;;;;8.90;97842.00;;;;5015054;28;20045;-59
2023/03/26 01:53:04;;;;;;;8.45;2.63;;;;;9.00;97850.00;;;;5015273;28;20052;-60
2023/03/26 01:55:37;;;;;;;10.85;2.42;;;;;9.00;97839.00;;;;5016347;28;20045;-60
2023/03/26 01:58:20;;;;;;;9.70;2.72;;;;;9.00;97834.00;;;;5014832;28;20517;-60
2023/03/26 02:01:23;;;;;;;6.13;2.40;;;;;9.10;97830.00;;;;5014235;28;20056;-60
2023/03/26 02:03:57;;;;;;;8.35;2.20;;;;;9.10;97817.00;;;;5012619;28;20056;-60
2023/03/26 02:06:24;;;;;;;9.00;2.25;;;;;9.10;97815.00;;;;5016149;28;20044;-60
2023/03/26 02:08:57;;;;;;;10.30;3.05;;;;;9.10;97807.00;;;;5015297;28;20077;-60
2023/03/26 02:11:24;;;;;;;10.55;2.55;;;;;9.00;97814.00;;;;5016471;28;20116;-60
2023/03/26 02:14:03;;;;;;;5.65;2.30;;;;;8.90;97808.00;;;;5031563;28;20053;-59
2023/03/26 02:16:30;;;;;;;9.10;2.38;;;;;8.90;97807.00;;;;5031301;28;20050;-58
2023/03/26 02:18:58;;;;;;;6.88;2.05;;;;;9.00;97805.00;;;;5015551;28;20118;-59
2023/03/26 02:21:26;;;;;;;10.95;2.20;;;;;8.90;97799.00;;;;5014437;28;20053;-61
2023/03/26 02:24:02;;;;;;;7.53;2.53;;;;;8.90;97791.00;;;;5014296;28;20053;-60
2023/03/26 02:26:34;;;;;;;10.13;2.33;;;;;8.90;97783.00;;;;5015093;28;20046;-59
2023/03/26 02:29:12;;;;;;;5.68;2.20;;;;;8.90;97775.00;;;;5014508;28;20046;-59
2023/03/26 02:31:42;;;;;;;10.02;2.10;;;;;8.90;97770.00;;;;5015313;28;20507;-60
2023/03/26 02:34:08;;;;;;;7.55;2.15;;;;;9.00;97767.00;;;;5016114;28;20438;-60
2023/03/26 02:36:38;;;;;;;8.48;2.55;;;;;9.00;97766.00;;;;5014819;28;20078;-60
2023/03/26 02:39:06;;;;;;;6.00;1.95;;;;;9.00;97759.00;;;;5013775;28;20115;-59
2023/03/26 02:41:39;;;;;;;13.25;2.70;;;;;9.00;97755.00;;;;5014702;28;20046;-60
2023/03/26 02:44:09;;;;;;;9.30;2.50;;;;;9.10;97748.00;;;;5015036;28;20045;-59
2023/03/26 02:46:54;;;;;;;9.20;2.58;;;;;9.10;97759.00;;;;5016419;28;20061;-60
2023/03/26 02:49:40;;;;;;;8.13;2.28;;;;;9.10;97756.00;;;;5015546;28;20529;-60
2023/03/26 02:52:07;;;;;;;9.55;2.30;;;;;9.00;97746.00;;;;5031189;28;20050;-60
2023/03/26 02:54:35;;;;;;;10.70;2.60;;;;;9.10;97748.00;;;;5014362;28;20510;-59
2023/03/26 02:57:13;;;;;;;5.25;2.28;;;;;9.10;97737.00;;;;5014394;28;20511;-59
2023/03/26 02:59:45;;;;;;;6.20;2.10;;;;;9.10;97742.00;;;;5015506;28;20508;-60
2023/03/26 03:02:46;;;;;;;9.23;2.20;;;;;9.10;97741.00;;;;4982230;28;20510;-59
2023/03/26 03:05:32;;;;;;;8.50;2.47;;;;;9.10;97734.00;;;;5015599;28;20112;-59
2023/03/26 03:08:22;;;;;;;9.77;2.35;;;;;9.20;97731.00;;;;5015750;28;20052;-60
2023/03/26 03:11:12;;;;;;;8.40;2.40;;;;;9.20;97721.00;;;;5015561;28;20105;-58
2023/03/26 03:13:45;;;;;;;9.10;1.90;;;;;9.30;97713.00;;;;5014463;28;20107;-59
2023/03/26 03:16:16;;;;;;;11.40;2.70;;;;;9.30;97713.00;;;;5014462;28;20138;-60
2023/03/26 03:18:43;;;;;;;6.95;2.28;;;;;9.30;97703.00;;;;5015221;28;20057;-60
2023/03/26 03:21:09;;;;;;;9.10;2.38;;;;;9.30;97703.00;;;;5015077;28;20065;-59
2023/03/26 03:23:36;;;;;;;13.05;2.53;;;;;9.40;97698.00;;;;5016084;28;20072;-61
2023/03/26 03:26:13;;;;;;;6.15;2.28;;;;;9.40;97699.00;;;;5031795;28;20054;-60
2023/03/26 03:28:41;;;;;;;11.18;2.65;;;;;9.50;97691.00;;;;5014844;28;20050;-59
2023/03/26 03:31:07;;;;;;;10.82;2.35;;;;;9.40;97691.00;;;;5016645;28;20475;-59
2023/03/26 03:33:35;;;;;;;13.95;2.65;;;;;9.30;97685.00;;;;4998324;28;20046;-60
2023/03/26 03:36:09;;;;;;;4.88;2.22;;;;;9.30;97682.00;;;;5014064;28;20058;-59
2023/03/26 03:38:46;;;;;;;8.63;2.30;;;;;9.30;97685.00;;;;5013707;28;20119;-59
2023/03/26 03:41:17;;;;;;;9.07;2.72;;;;;9.30;97675.00;;;;5014067;28;20050;-60
2023/03/26 03:43:45;;;;;;;5.40;2.40;;;;;9.10;97668.00;;;;5029540;28;20076;-58
2023/03/26 03:46:17;;;;;;;6.70;2.20;;;;;9.20;97668.00;;;;5012857;28;20041;-59
2023/03/26 03:48:49;;;;;;;8.38;2.92;;;;;9.30;97659.00;;;;5012172;28;20073;-59
2023/03/26 03:51:20;;;;;;;9.15;2.88;;;;;9.20;97646.00;;;;5012883;28;20310;-59
2023/03/26 03:54:09;;;;;;;19.60;9.32;;;;;9.10;97644.00;;;;5014275;28;20100;-58
2023/03/26 03:56:46;;;;;;;16.73;6.50;;;;;9.20;97636.00;;;;5014064;28;20061;-60
2023/03/26 03:59:42;;;;;;;10.77;3.53;;;;;9.20;97623.00;;;;5002942;28;20049;-60
2023/03/26 04:02:24;;;;;;;7.60;2.55;;;;;9.30;97621.00;;;;5022584;28;20086;-59
2023/03/26 04:04:56;;;;;;;10.18;2.92;;;;;9.40;97617.00;;;;5023482;28;20046;-61
2023/03/26 04:07:24;;;;;;;9.38;2.53;;;;;9.40;97614.00;;;;5024723;28;20073;-61
2023/03/26 04:10:14;;;;;;;16.67;4.78;;;;;9.40;97592.00;;;;5020683;28;20077;-61
2023/03/26 04:13:22;;;;;;;9.07;2.42;;;;;9.30;97590.00;;;;5019318;28;20168;-61
2023/03/26 04:16:08;;;;;;;11.02;3.33;;;;;9.30;97583.00;;;;5019730;28;20052;-61
2023/03/26 04:18:36;;;;;;;11.52;2.47;;;;;9.30;97586.00;;;;5033795;28;20064;-60
2023/03/26 04:21:11;;;;;;;9.00;1.92;;;;;9.40;97574.00;;;;5016535;28;20057;-59
2023/03/26 04:23:38;;;;;;;9.43;3.58;;;;;9.40;97570.00;;;;5015867;28;20495;-60
2023/03/26 04:26:18;;;;;;;8.80;2.60;;;;;9.40;97565.00;;;;4998621;28;20399;-59
2023/03/26 04:29:04;;;;;;;9.65;2.83;;;;;9.40;97558.00;;;;5028768;28;20594;-59
2023/03/26 04:31:32;;;;;;;7.13;2.33;;;;;9.50;97558.00;;;;5012263;28;20046;-60
2023/03/26 04:34:12;;;;;;;8.02;2.22;;;;;9.50;97550.00;;;;5012972;28;20056;-61
2023/03/26 04:36:53;;;;;;;11.95;2.58;;;;;9.60;97547.00;;;;5013775;28;20045;-60
2023/03/26 04:39:22;;;;;;;10.20;3.17;;;;;9.70;97552.00;;;;5011645;28;20141;-60
2023/03/26 04:42:10;;;;;;;12.93;2.63;;;;;9.60;97558.00;;;;5013391;28;20080;-59
2023/03/26 04:44:51;;;;;;;6.88;2.63;;;;;9.70;97553.00;;;;5011704;28;20502;-60
2023/03/26 04:47:18;;;;;;;10.20;2.47;;;;;9.70;97548.00;;;;5011705;28;20046;-59
2023/03/26 04:49:47;;;;;;;11.18;2.85;;;;;9.70;97549.00;;;;5012248;28;20042;-60
2023/03/26 04:52:15;;;;;;;10.32;3.38;;;;;9.70;97544.00;;;;5011512;28;20073;-60
2023/03/26 04:54:45;;;;;;;5.90;2.00;;;;;9.70;97540.00;;;;5012637;28;20149;-60
2023/03/26 04:57:26;;;;;;;8.73;2.08;;;;;9.70;97539.00;;;;5011518;28;20068;-60
2023/03/26 05:00:15;;;;;;;8.07;2.65;;;;;9.80;97533.00;;;;5027207;28;20049;-59
2023/03/26 05:02:49;;;;;;;5.43;2.35;;;;;9.80;97534.00;;;;5011258;28;20049;-60
2023/03/26 05:05:17;;;;;;;11.45;2.85;;;;;9.80;97525.00;;;;5011421;28;20049;-59
2023/03/26 05:07:44;;;;;;;10.00;2.80;;;;;9.70;97513.00;;;;5011524;28;20133;-60
2023/03/26 05:10:15;;;;;;;8.90;3.03;;;;;9.70;97502.00;;;;5011238;28;20411;-61
2023/03/26 05:12:51;;;;;;;7.40;2.50;;;;;9.70;97515.00;;;;5011612;28;20042;-60
2023/03/26 05:15:26;;;;;;;8.63;2.35;;;;;9.80;97518.00;;;;5011511;28;20418;-61
2023/03/26 05:17:55;;;;;;;17.35;3.55;;;;;9.80;97497.00;;;;5013012;28;20108;-62
2023/03/26 05:20:45;;;;;;;6.97;2.78;;;;;9.80;97495.00;;;;5011796;28;20085;-60
2023/03/26 05:23:12;;;;;;;8.88;2.00;;;;;9.80;97485.00;;;;5011023;28;20462;-59
2023/03/26 05:25:41;;;;;;;11.45;1.83;;;;;9.90;97486.00;;;;5011142;28;20408;-57
2023/03/26 05:28:14;;;;;;;8.27;2.80;;;;;9.90;97481.00;;;;5016928;28;20050;-63
2023/03/26 05:30:56;;;;;;;9.65;2.72;;;;;9.80;97482.00;;;;5016175;28;20069;-63
2023/03/26 05:33:26;;;;;;;8.68;2.25;;;;;9.90;97483.00;;;;5017968;28;20528;-62
2023/03/26 05:36:12;;;;;;;15.65;4.32;;;;;9.90;97479.00;;;;5017524;28;20054;-60
2023/03/26 05:38:48;;;;;;;12.30;3.65;;;;;9.90;97468.00;;;;5016725;28;20045;-62
2023/03/26 05:41:35;;;;;;;6.65;2.60;;;;;9.70;97464.00;;;;5017773;28;20053;-62
2023/03/26 05:44:01;;;;;;;8.57;2.22;;;;;9.70;97459.00;;;;5019642;28;20521;-61
2023/03/26 05:46:29;;;;;;;8.13;2.40;;;;;9.70;97457.00;;;;5021916;28;20038;-62
2023/03/26 05:48:57;;;;;;;12.77;2.53;;;;;9.80;97447.00;;;;5017376;28;20045;-61
2023/03/26 05:51:23;;;;;;;17.20;4.45;;;;;9.80;97439.00;;;;5015257;28;20046;-62
2023/03/26 05:54:15;;;;;;;11.48;3.20;;;;;9.70;97423.00;;;;5032183;28;20069;-62
2023/03/26 05:57:00;;;;;;;9.43;2.83;;;;;9.60;97413.00;;;;5017091;28;20060;-61
2023/03/26 05:59:45;;;;;;;8.48;1.83;;;;;9.70;97405.00;;;;5017397;28;20104;-62
2023/03/26 06:02:17;;;;;;;9.25;3.85;;;;;9.80;97404.00;;;;5018032;28;20054;-62
2023/03/26 06:05:08;;;;;;;5.35;2.35;;;;;9.80;97398.00;;;;5017802;28;20061;-61
2023/03/26 06:07:53;;;;;;;10.80;2.75;;;;;9.90;97399.00;;;;5010737;28;20053;-59
2023/03/26 06:10:20;;;;;;;16.92;9.05;;;;;9.90;97395.00;;;;5010287;28;20522;-58
2023/03/26 06:12:48;;;;;;;16.80;9.60;;;;;9.90;97383.00;;;;5011702;28;20045;-59
2023/03/26 06:15:15;;;;;;;9.55;3.78;;;;;9.90;97381.00;;;;5014077;28;20053;-59
2023/03/26 06:17:47;;;;;;;23.00;11.90;;;;;10.00;97385.00;;;;5010772;28;20064;-59
2023/03/26 06:20:32;;;;;;;15.05;6.82;;;;;10.00;97386.00;;;;5011601;28;20172;-60
2023/03/26 06:23:02;;;;;;;11.10;3.40;;;;;10.00;97380.00;;;;5010957;28;20525;-59
2023/03/26 06:25:44;;;;;;;7.38;3.25;;;;;10.10;97380.00;;;;5011117;28;20053;-60
2023/03/26 06:28:24;;;;;;;8.10;2.33;;;;;10.20;97380.00;;;;5012258;28;20057;-60
2023/03/26 06:31:18;;;;;;;9.82;2.42;;;;;10.30;97384.00;;;;4989196;28;20046;-60
2023/03/26 06:34:10;;;;;;;8.90;2.30;;;;;10.30;97384.00;;;;5014928;28;20052;-59
2023/03/26 06:36:37;;;;;;;9.88;2.80;;;;;10.30;97386.00;;;;5015024;28;20050;-59
2023/03/26 06:39:04;;;;;;;9.80;3.30;;;;;10.30;97381.00;;;;5015984;28;20451;-58
2023/03/26 06:41:35;;;;;;;8.13;2.53;;;;;10.20;97371.00;;;;5015347;28;20049;-59
2023/03/26 06:44:20;;;;;;;11.73;4.28;;;;;10.00;97380.00;;;;5014507;28;20049;-58
2023/03/26 06:47:13;;;;;;;10.10;2.85;;;;;9.90;97375.00;;;;4984717;28;20045;-60
2023/03/26 06:50:00;;;;;;;7.38;2.28;;;;;9.70;97367.00;;;;5026929;28;20133;-60
2023/03/26 06:52:54;;;;;;;10.05;2.45;;;;;9.70;97357.00;;;;4994724;28;20049;-60
2023/03/26 06:55:39;;;;;;;7.88;2.42;;;;;9.60;97353.00;;;;5015537;28;20099;-58
2023/03/26 06:58:21;;;;;;;4.57;1.70;;;;;9.50;97341.00;;;;5014033;28;20046;-61
2023/03/26 07:01:10;;;;;;;3.05;1.67;;;;;9.50;97341.00;;;;4986895;28;20054;-60
2023/03/26 07:03:55;;;;;;;5.03;1.58;;;;;9.60;97331.00;;;;5015440;28;20143;-58
2023/03/26 07:06:44;;;;;;;4.55;1.90;;;;;9.50;97331.00;;;;5015290;28;20057;-57
2023/03/26 07:09:29;;;;;;;8.77;2.35;;;;;9.60;97329.00;;;;5014040;28;20060;-59
2023/03/26 07:12:14;;;;;;;6.97;2.20;;;;;9.70;97329.00;;;;5014845;28;20056;-59
2023/03/26 07:15:01;;;;;;;4.45;2.50;;;;;9.70;97326.00;;;;5014938;28;20065;-58
2023/03/26 07:18:00;;;;;;;5.97;2.05;;;;;9.70;97325.00;;;;4992005;28;20069;-57
2023/03/26 07:20:31;;;;;;;6.07;2.13;;;;;9.60;97330.00;;;;5012663;28;20514;-59
2023/03/26 07:22:58;;;;;;;7.97;2.63;;;;;9.40;97320.00;;;;5014501;28;20133;-59
2023/03/26 07:25:54;;;;;;;6.32;2.05;;;;;9.40;97315.00;;;;5001719;28;20446;-57
2023/03/26 07:28:40;;;;;;;8.05;3.88;;;;;9.50;97304.00;;;;5012648;28;20057;-56
2023/03/26 07:31:35;;;;;;;4.93;2.40;;;;;9.50;97296.00;;;;4983720;28;20081;-59
2023/03/26 07:34:37;;;;;;;5.45;2.40;;;;;9.40;97292.00;;;;5012963;28;20038;-59
2023/03/26 07:37:44;;;;;;;8.05;3.50;;;;;9.20;97285.00;;;;5029761;28;20206;-58
2023/03/26 07:40:38;;;;;;;63.30;35.72;;;;;9.20;97272.00;;;;5013952;28;20438;-62
2023/03/26 07:43:23;;;;;;;15.55;6.68;;;;;9.20;97255.00;;;;5013188;28;20533;-59
2023/03/26 07:46:02;;;;;;;12.95;5.47;;;;;9.30;97243.00;;;;5014191;28;20089;-57
2023/03/26 07:48:48;;;;;;;9.38;3.35;;;;;9.30;97244.00;;;;5013532;28;20132;-58
2023/03/26 07:51:32;;;;;;;4.57;2.03;;;;;9.30;97241.00;;;;5013933;28;20054;-59
2023/03/26 07:54:21;;;;;;;4.68;2.25;;;;;9.20;97230.00;;;;5012740;28;20052;-58
2023/03/26 07:57:43;;;;;;;5.35;2.30;;;;;9.20;97228.00;;;;5012614;28;20046;-60
2023/03/26 08:00:52;;;;;;;3.47;1.75;;;;;9.30;97220.00;;;;4990109;28;20061;-61
2023/03/26 08:03:56;;;;;;;2.47;1.67;;;;;9.50;97226.00;;;;5012371;28;20125;-63
2023/03/26 08:06:59;;;;;;;5.22;1.80;;;;;9.40;97210.00;;;;5010450;28;20054;-60
2023/03/26 08:10:23;;;;;;;4.10;1.73;;;;;9.60;97213.00;;;;5012983;28;20565;-61
2023/03/26 08:12:57;;;;;;;4.10;2.08;;;;;10.10;97216.00;;;;5012243;28;20064;-59
2023/03/26 08:15:31;;;;;;;2.60;1.60;;;;;10.10;97208.00;;;;5013714;28;20046;-60
2023/03/26 08:18:20;;;;;;;3.15;1.67;;;;;10.20;97209.00;;;;5014740;28;20479;-60
2023/03/26 08:20:50;;;;;;;5.15;2.20;;;;;10.30;97218.00;;;;5012363;28;20050;-60
2023/03/26 08:23:26;;;;;;;3.05;2.03;;;;;10.40;97212.00;;;;5011969;28;20049;-59
2023/03/26 08:26:01;;;;;;;7.20;2.38;;;;;10.50;97201.00;;;;5013276;28;20400;-60
2023/03/26 08:28:37;;;;;;;3.42;1.83;;;;;10.60;97209.00;;;;5012698;28;20508;-58
2023/03/26 08:31:04;;;;;;;5.80;2.78;;;;;10.50;97206.00;;;;5012846;28;20069;-59
2023/03/26 08:33:33;;;;;;;4.70;2.15;;;;;10.40;97198.00;;;;5013096;28;20045;-59
2023/03/26 08:36:01;;;;;;;2.00;1.27;;;;;10.40;97184.00;;;;5013446;28;20042;-60
2023/03/26 08:38:28;;;;;;;4.22;1.52;;;;;10.50;97210.00;;;;5011505;28;20566;-60
2023/03/26 08:41:10;;;;;;;4.20;1.90;;;;;10.50;97200.00;;;;5013361;28;20077;-60
2023/03/26 08:44:27;;;;;;;6.15;2.25;;;;;10.50;97201.00;;;;5013502;28;20495;-59
2023/03/26 08:47:12;;;;;;;4.03;1.80;;;;;10.60;97222.00;;;;4980341;28;20070;-60
2023/03/26 08:49:54;;;;;;;5.18;2.13;;;;;10.60;97212.00;;;;5011933;28;20188;-62
2023/03/26 08:52:36;;;;;;;3.97;1.70;;;;;10.70;97206.00;;;;5013609;28;20050;-60
2023/03/26 08:55:15;;;;;;;4.45;1.73;;;;;10.90;97202.00;;;;5012890;28;20499;-59
2023/03/26 08:58:09;;;;;;;5.18;2.53;;;;;11.10;97200.00;;;;5013036;28;20046;-61
2023/03/26 09:00:47;;;;;;;4.28;1.80;;;;;11.30;97197.00;;;;5012164;28;20042;-59
2023/03/26 09:03:29;;;;;;;4.43;1.63;;;;;11.60;97190.00;;;;5011682;28;20046;-60
2023/03/26 09:06:24;;;;;;;4.93;1.30;;;;;11.90;97194.00;;;;5011879;28;20132;-60
2023/03/26 09:09:09;;;;;;;;;;;;;12.10;97197.00;;;;5012390;28;20054;-60
2023/03/26 09:12:13;;;;;;;6.13;2.33;;;;;11.80;97202.00;;;;5013006;28;19922;-60
2023/03/26 09:15:02;;;;;;;4.05;1.92;;;;;11.80;97205.00;;;;5012629;28;20491;-60
2023/03/26 09:17:50;;;;;;;5.43;1.83;;;;;11.80;97202.00;;;;5012029;28;20402;-60
2023/03/26 09:20:35;;;;;;;4.22;1.60;;;;;11.80;97209.00;;;;5010620;28;20050;-60
2023/03/26 09:23:21;;;;;;;3.70;1.65;;;;;11.80;97196.00;;;;5011368;28;20064;-60
2023/03/26 09:26:02;;;;;;;3.92;1.83;;;;;12.00;97187.00;;;;5012496;28;20096;-60
2023/03/26 09:28:38;;;;;;;4.50;1.75;;;;;12.10;97182.00;;;;5012262;28;20041;-59
2023/03/26 09:31:41;;;;;;;2.92;1.50;;;;;12.20;97172.00;;;;5012530;28;20050;-59
2023/03/26 09:34:26;;;;;;;2.78;1.30;;;;;12.40;97168.00;;;;5013833;28;20042;-59
2023/03/26 09:37:07;;;;;;;5.45;1.58;;;;;12.50;97164.00;;;;5016160;28;20046;-59
2023/03/26 09:40:11;;;;;;;4.03;1.40;;;;;12.90;97159.00;;;;5020911;28;20045;-59
2023/03/26 09:42:52;;;;;;;6.25;1.42;;;;;13.20;97163.00;;;;5021728;28;20096;-59
2023/03/26 09:45:38;;;;;;;4.50;1.70;;;;;13.30;97173.00;;;;5017576;28;20491;-59
2023/03/26 09:48:17;;;;;;;3.65;1.55;;;;;13.50;97153.00;;;;5012383;28;20132;-62
2023/03/26 09:51:07;;;;;;;4.72;1.65;;;;;13.70;97161.00;;;;5013139;28;20046;-62
2023/03/26 09:53:37;;;;;;;2.78;1.35;;;;;13.80;97152.00;;;;4984925;28;20062;-62
2023/03/26 09:56:42;;;;;;;5.40;1.42;;;;;13.90;97152.00;;;;5017588;28;20068;-62
2023/03/26 09:59:15;;;;;;;;;;;;;13.80;97159.00;;;;5006569;28;20468;-62
2023/03/26 10:02:29;;;;;;;5.60;1.20;;;;;13.40;97161.00;;;;5018060;28;19921;-62
2023/03/26 10:05:23;;;;;;;1.10;0.80;;;;;13.30;97176.00;;;;4979051;28;20058;-62
2023/03/26 10:08:28;;;;;;;1.95;0.90;;;;;13.20;97168.00;;;;5014333;28;20054;-63
2023/03/26 10:11:34;;;;;;;4.00;1.27;;;;;13.20;97172.00;;;;5016307;28;20052;-63
2023/03/26 10:14:21;;;;;;;3.80;1.70;;;;;13.30;97179.00;;;;5016956;28;20073;-62
2023/03/26 10:16:57;;;;;;;2.15;1.10;;;;;13.40;97172.00;;;;5016444;28;20117;-63
2023/03/26 10:19:27;;;;;;;3.47;1.85;;;;;13.40;97176.00;;;;5014551;28;20054;-63
2023/03/26 10:22:05;;;;;;;8.35;5.18;;;;;13.40;97188.00;;;;5017437;28;20490;-62
2023/03/26 10:24:56;;;;;;;3.63;1.42;;;;;13.40;97187.00;;;;4999442;28;20065;-61
2023/03/26 10:27:54;;;;;;;2.65;1.60;;;;;13.40;97185.00;;;;5016514;28;20052;-62
2023/03/26 10:30:42;;;;;;;1.98;0.85;;;;;13.40;97165.00;;;;5016551;28;20038;-62
2023/03/26 10:33:32;;;;;;;3.03;1.40;;;;;13.60;97172.00;;;;5015717;28;20549;-62
2023/03/26 10:35:59;;;;;;;1.55;0.90;;;;;13.80;97173.00;;;;5016761;28;20482;-62
2023/03/26 10:39:00;;;;;;;4.10;0.90;;;;;14.00;97171.00;;;;5016074;28;20046;-60
2023/03/26 10:41:28;;;;;;;1.60;1.08;;;;;14.00;97185.00;;;;5015675;28;20410;-63
2023/03/26 10:43:57;;;;;;;3.40;0.95;;;;;13.90;97169.00;;;;5016612;28;20045;-62
2023/03/26 10:46:56;;;;;;;3.80;0.82;;;;;14.10;97167.00;;;;5016989;28;20046;-62
2023/03/26 10:49:53;;;;;;;3.85;1.33;;;;;14.30;97160.00;;;;5015035;28;20096;-62
2023/03/26 10:52:23;;;;;;;1.55;1.08;;;;;14.20;97174.00;;;;5016989;28;20365;-63
2023/03/26 10:54:58;;;;;;;3.97;0.90;;;;;14.00;97188.00;;;;5018273;28;20046;-62
2023/03/26 10:57:38;;;;;;;3.00;1.02;;;;;13.70;97191.00;;;;5015726;28;20046;-60
2023/03/26 11:00:14;;;;;;;2.70;1.00;;;;;13.30;97206.00;;;;5015022;28;20124;-60
2023/03/26 11:02:49;;;;;;;3.75;0.90;;;;;12.90;97207.00;;;;5014989;28;20057;-60
2023/03/26 11:05:16;;;;;;;5.25;1.25;;;;;12.50;97211.00;;;;5013405;28;20045;-60
2023/03/26 11:07:54;;;;;;;2.63;1.15;;;;;12.30;97217.00;;;;5014783;28;20046;-60
2023/03/26 11:10:34;;;;;;;1.38;1.10;;;;;12.10;97204.00;;;;5014103;28;20517;-60
2023/03/26 11:13:42;;;;;;;3.42;1.85;;;;;12.00;97217.00;;;;5014770;28;20415;-60
2023/03/26 11:16:27;;;;;;;4.15;1.60;;;;;12.00;97216.00;;;;5014789;28;20522;-60
2023/03/26 11:19:04;;;;;;;6.45;2.05;;;;;11.90;97213.00;;;;5012672;28;20503;-61
2023/03/26 11:21:33;;;;;;;7.70;1.60;;;;;12.00;97208.00;;;;5014684;28;20469;-60
2023/03/26 11:24:42;;;;;;;5.97;1.20;;;;;12.10;97194.00;;;;5014793;28;20053;-60
2023/03/26 11:27:24;;;;;;;4.57;1.30;;;;;12.30;97197.00;;;;5013295;28;20057;-60
2023/03/26 11:30:11;;;;;;;4.50;1.60;;;;;12.50;97196.00;;;;5012816;28;20046;-60
2023/03/26 11:32:43;;;;;;;4.40;1.50;;;;;12.60;97199.00;;;;5014268;28;20053;-59
2023/03/26 11:35:22;;;;;;;6.07;1.50;;;;;12.70;97204.00;;;;5014355;28;20407;-60
2023/03/26 11:38:19;;;;;;;5.30;2.20;;;;;12.90;97200.00;;;;5013625;28;20046;-60
2023/03/26 11:40:51;;;;;;;5.22;1.50;;;;;13.00;97195.00;;;;5012571;28;20052;-60
2023/03/26 11:43:35;;;;;;;4.00;1.48;;;;;13.10;97199.00;;;;5012879;28;20072;-61
2023/03/26 11:46:05;;;;;;;3.42;1.10;;;;;13.10;97191.00;;;;5014056;28;20045;-60
2023/03/26 11:48:44;;;;;;;3.38;1.40;;;;;13.10;97194.00;;;;5013630;28;20038;-61
2023/03/26 11:51:18;;;;;;;2.95;1.13;;;;;13.10;97194.00;;;;5012788;28;20108;-59
2023/03/26 11:53:45;;;;;;;5.70;1.67;;;;;13.20;97186.00;;;;5012720;28;20063;-60
2023/03/26 11:56:27;;;;;;;6.35;1.83;;;;;13.40;97196.00;;;;5014030;28;20046;-60
2023/03/26 11:59:10;;;;;;;3.15;1.10;;;;;13.70;97183.00;;;;5013620;28;20407;-61
2023/03/26 12:01:50;;;;;;;7.80;3.15;;;;;13.90;97179.00;;;;5012431;28;20060;-61
2023/03/26 12:04:26;;;;;;;4.80;1.48;;;;;14.30;97172.00;;;;5012690;28;20144;-61
2023/03/26 12:07:03;;;;;;;2.55;1.00;;;;;14.60;97183.00;;;;5014170;28;20056;-61
2023/03/26 12:09:30;;;;;;;2.90;1.40;;;;;14.70;97182.00;;;;5013565;28;20414;-60
2023/03/26 12:12:02;;;;;;;3.90;1.58;;;;;14.90;97179.00;;;;5013718;28;20045;-61
2023/03/26 12:14:33;;;;;;;4.90;1.33;;;;;15.00;97183.00;;;;5012520;28;20048;-61
2023/03/26 12:17:06;;;;;;;3.45;1.20;;;;;15.20;97187.00;;;;5012701;28;20069;-60
2023/03/26 12:19:44;;;;;;;2.63;1.38;;;;;15.30;97169.00;;;;5013237;28;20041;-61
2023/03/26 12:22:35;;;;;;;3.00;1.15;;;;;15.30;97174.00;;;;5014001;28;20046;-60
2023/03/26 12:25:28;;;;;;;3.83;1.20;;;;;15.20;97178.00;;;;5013692;28;20042;-61
2023/03/26 12:28:14;;;;;;;4.47;1.48;;;;;15.10;97171.00;;;;5012328;28;20042;-60
2023/03/26 12:30:52;;;;;;;4.75;1.30;;;;;14.90;97168.00;;;;5012313;28;20069;-59
2023/03/26 12:33:28;;;;;;;4.03;1.10;;;;;14.80;97153.00;;;;5013617;28;20506;-62
2023/03/26 12:35:59;;;;;;;4.45;1.60;;;;;14.80;97146.00;;;;5013464;28;20120;-57
2023/03/26 12:38:31;;;;;;;7.03;1.55;;;;;14.90;97145.00;;;;5011684;28;20058;-68
2023/03/26 12:41:08;;;;;;;3.90;1.00;;;;;15.00;97141.00;;;;5013001;28;20065;-57
2023/03/26 12:43:54;;;;;;;8.43;1.65;;;;;15.00;97136.00;;;;5013391;28;20050;-60
2023/03/26 12:46:46;;;;;;;3.45;1.27;;;;;15.20;97136.00;;;;5012053;28;20410;-61
2023/03/26 12:49:32;;;;;;;4.43;1.10;;;;;15.20;97133.00;;;;5012649;28;20459;-59
2023/03/26 12:52:26;;;;;;;4.70;1.48;;;;;15.20;97137.00;;;;5013233;28;20100;-59
2023/03/26 12:55:11;;;;;;;3.53;1.50;;;;;15.30;97131.00;;;;5013141;28;20443;-60
2023/03/26 12:57:58;;;;;;;3.40;0.93;;;;;15.30;97126.00;;;;5012012;28;20137;-60
2023/03/26 13:01:07;;;;;;;4.38;1.30;;;;;15.30;97118.00;;;;5012365;28;20049;-60
2023/03/26 13:03:58;;;;;;;5.90;1.27;;;;;15.50;97113.00;;;;4985139;28;20436;-60
2023/03/26 13:06:52;;;;;;;4.70;1.30;;;;;15.40;97113.00;;;;5012929;28;20042;-60
2023/03/26 13:09:54;;;;;;;4.88;1.20;;;;;15.20;97118.00;;;;5012820;28;20042;-60
2023/03/26 13:12:34;;;;;;;4.65;1.15;;;;;15.10;97122.00;;;;5015613;28;20450;-59
2023/03/26 13:15:23;;;;;;;6.28;1.73;;;;;15.00;97118.00;;;;5014120;28;20454;-59
2023/03/26 13:18:14;;;;;;;5.80;1.50;;;;;15.10;97117.00;;;;5013868;28;20129;-60
2023/03/26 13:21:07;;;;;;;5.28;1.40;;;;;15.00;97122.00;;;;5018165;28;20054;-60
2023/03/26 13:23:56;;;;;;;6.13;1.63;;;;;14.90;97118.00;;;;5022741;28;20109;-60